createdAt,value
2019-05-18T00:00:52.924Z,31.05
2019-05-18T00:03:21.460Z,32.60
2019-05-18T00:05:49.927Z,34.65
2019-05-18T00:08:18.392Z,33.63
2019-05-18T00:10:46.892Z,31.70
2019-05-18T00:13:15.360Z,31.12
2019-05-18T00:15:43.884Z,31.87
2019-05-18T00:18:12.456Z,32.65
2019-05-18T00:20:41.024Z,32.78
2019-05-18T00:23:09.524Z,35.25
2019-05-18T00:25:38.049Z,30.27
2019-05-18T00:28:06.501Z,34.43
2019-05-18T00:30:34.974Z,33.78
2019-05-18T00:33:03.587Z,30.52
2019-05-18T00:35:32.210Z,29.15
2019-05-18T00:38:00.688Z,30.12
2019-05-18T00:40:29.262Z,30.77
2019-05-18T00:42:57.723Z,32.05
2019-05-18T00:45:26.178Z,30.97
2019-05-18T00:47:54.672Z,32.08
2019-05-18T00:50:23.179Z,35.23
2019-05-18T00:52:51.643Z,31.55
2019-05-18T00:55:20.155Z,36.77
2019-05-18T00:57:48.700Z,30.45
2019-05-18T01:00:17.704Z,34.85
2019-05-18T01:02:46.208Z,36.10
2019-05-18T01:05:14.961Z,34.98
2019-05-18T01:07:43.493Z,37.45
2019-05-18T01:10:12.648Z,32.60
2019-05-18T01:12:41.180Z,34.03
2019-05-18T01:15:10.795Z,35.52
2019-05-18T01:17:39.540Z,37.78
2019-05-18T01:20:08.854Z,40.05
2019-05-18T01:22:37.328Z,39.30
2019-05-18T01:25:06.289Z,44.05
2019-05-18T01:27:34.796Z,44.90
2019-05-18T01:30:05.281Z,45.67
2019-05-18T01:32:33.788Z,45.30
2019-05-18T01:35:02.330Z,49.35
2019-05-18T01:37:30.935Z,46.00
2019-05-18T01:39:59.467Z,50.35
2019-05-18T01:42:27.935Z,46.70
2019-05-18T01:44:56.435Z,44.85
2019-05-18T01:47:24.908Z,44.18
2019-05-18T01:49:53.425Z,46.28
2019-05-18T01:52:21.900Z,44.08
2019-05-18T01:54:50.433Z,45.65
2019-05-18T01:57:18.927Z,45.98
2019-05-18T01:59:47.435Z,48.17
2019-05-18T02:02:15.928Z,40.88
2019-05-18T02:04:44.393Z,40.98
2019-05-18T02:07:12.951Z,38.35
2019-05-18T02:09:41.450Z,43.78
2019-05-18T02:12:09.916Z,41.40
2019-05-18T02:14:38.458Z,43.68
2019-05-18T02:17:07.027Z,44.45
2019-05-18T02:19:35.610Z,40.43
2019-05-18T02:22:04.133Z,48.08
2019-05-18T02:24:32.580Z,42.88
2019-05-18T02:27:01.309Z,41.83
2019-05-18T02:29:29.761Z,44.63
2019-05-18T02:31:58.361Z,42.25
2019-05-18T02:34:26.902Z,51.92
2019-05-18T02:36:55.436Z,47.85
2019-05-18T02:39:23.967Z,44.42
2019-05-18T02:41:52.500Z,45.95
2019-05-18T02:44:20.947Z,45.92
2019-05-18T02:46:49.444Z,44.42
2019-05-18T02:49:18.041Z,43.70
2019-05-18T02:51:46.508Z,44.48
2019-05-18T02:54:15.044Z,51.37
2019-05-18T02:56:43.616Z,57.00
2019-05-18T02:59:12.153Z,72.25
2019-05-18T03:01:40.720Z,55.65
2019-05-18T03:04:09.228Z,54.77
2019-05-18T03:06:37.756Z,54.15
2019-05-18T03:09:06.908Z,55.50
2019-05-18T03:11:35.737Z,55.17
2019-05-18T03:14:04.608Z,60.73
2019-05-18T03:16:33.750Z,55.80
2019-05-18T03:19:08.241Z,55.75
2019-05-18T03:21:32.511Z,56.28
2019-05-18T03:24:00.983Z,58.17
2019-05-18T03:26:29.593Z,61.70
2019-05-18T03:28:58.129Z,57.85
2019-05-18T03:31:26.609Z,55.23
2019-05-18T03:33:55.169Z,57.30
2019-05-18T03:36:23.638Z,52.05
2019-05-18T03:38:52.207Z,62.25
2019-05-18T03:41:20.743Z,52.67
2019-05-18T03:43:49.227Z,58.17
2019-05-18T03:46:17.846Z,55.98
2019-05-18T03:48:46.370Z,59.33
2019-05-18T03:51:14.877Z,62.70
2019-05-18T03:53:43.326Z,67.03
2019-05-18T03:56:11.775Z,72.22
2019-05-18T03:58:40.553Z,65.50
2019-05-18T04:01:09.090Z,66.33
2019-05-18T04:03:37.671Z,74.20
2019-05-18T04:06:06.234Z,72.60
2019-05-18T04:08:34.798Z,76.33
2019-05-18T04:11:03.260Z,73.35
2019-05-18T04:13:31.849Z,75.20
2019-05-18T04:16:00.391Z,77.62
2019-05-18T04:18:28.926Z,75.47
2019-05-18T04:20:58.095Z,70.03
2019-05-18T04:23:26.601Z,75.45
2019-05-18T04:25:55.212Z,68.35
2019-05-18T04:28:23.681Z,78.55
2019-05-18T04:30:52.129Z,84.07
2019-05-18T04:33:20.639Z,92.72
2019-05-18T04:35:49.168Z,85.62
2019-05-18T04:38:17.684Z,96.08
2019-05-18T04:40:46.234Z,89.37
2019-05-18T04:43:14.771Z,89.07
2019-05-18T04:45:43.365Z,85.38
2019-05-18T04:48:11.814Z,81.08
2019-05-18T04:50:40.279Z,81.05
2019-05-18T04:53:08.773Z,76.10
2019-05-18T04:55:37.308Z,77.20
2019-05-18T04:58:05.805Z,77.03
2019-05-18T05:00:34.352Z,77.05
2019-05-18T05:03:03.399Z,72.37
2019-05-18T05:05:31.922Z,68.55
2019-05-18T05:08:00.389Z,68.92
2019-05-18T05:10:28.913Z,74.07
2019-05-18T05:12:57.429Z,70.03
2019-05-18T05:15:25.956Z,65.20
2019-05-18T05:17:54.416Z,65.35
2019-05-18T05:20:22.986Z,69.20
2019-05-18T05:22:51.630Z,63.98
2019-05-18T05:25:20.101Z,67.20
2019-05-18T05:27:48.658Z,71.42
2019-05-18T05:30:17.220Z,60.92
2019-05-18T05:32:45.747Z,66.55
2019-05-18T05:35:14.538Z,67.47
2019-05-18T05:37:43.073Z,65.65
2019-05-18T05:40:11.952Z,59.88
2019-05-18T05:42:40.477Z,59.38
2019-05-18T05:45:09.484Z,64.35
2019-05-18T05:47:37.939Z,56.88
2019-05-18T05:50:10.530Z,52.73
2019-05-18T05:52:39.072Z,53.83
2019-05-18T05:55:08.453Z,48.85
2019-05-18T05:57:37.017Z,59.83
2019-05-18T06:00:07.725Z,45.95
2019-05-18T06:02:36.291Z,42.93
2019-05-18T06:05:06.430Z,43.95
2019-05-18T06:07:35.369Z,41.88
2019-05-18T06:10:05.362Z,40.30
2019-05-18T06:12:33.849Z,42.23
2019-05-18T06:15:02.396Z,36.68
2019-05-18T06:17:31.000Z,34.78
2019-05-18T06:19:59.472Z,32.53
2019-05-18T06:22:28.005Z,31.62
2019-05-18T06:24:56.599Z,31.10
2019-05-18T06:27:25.149Z,27.45
2019-05-18T06:29:53.608Z,28.60
2019-05-18T06:32:22.106Z,25.92
2019-05-18T06:34:50.601Z,26.55
2019-05-18T06:37:19.085Z,28.65
2019-05-18T06:39:47.632Z,23.47
2019-05-18T06:42:16.161Z,21.82
2019-05-18T06:44:44.625Z,22.90
2019-05-18T06:47:13.153Z,23.35
2019-05-18T06:49:41.665Z,24.43
2019-05-18T06:52:10.139Z,23.22
2019-05-18T06:54:38.738Z,21.82
2019-05-18T06:57:08.470Z,17.62
2019-05-18T06:59:38.169Z,18.32
2019-05-18T07:02:06.706Z,19.02
2019-05-18T07:04:35.179Z,19.35
2019-05-18T07:07:03.714Z,19.45
2019-05-18T07:09:32.238Z,18.15
2019-05-18T07:12:00.698Z,17.98
2019-05-18T07:14:29.164Z,24.90
2019-05-18T07:16:57.674Z,25.50
2019-05-18T07:19:26.145Z,28.47
2019-05-18T07:21:54.594Z,25.35
2019-05-18T07:24:23.105Z,27.58
2019-05-18T07:26:51.640Z,28.23
2019-05-18T07:29:20.153Z,21.60
2019-05-18T07:31:48.694Z,18.67
2019-05-18T07:34:17.233Z,19.70
2019-05-18T07:36:45.808Z,16.77
2019-05-18T07:39:14.408Z,16.00
2019-05-18T07:41:46.786Z,13.68
2019-05-18T07:44:13.085Z,14.55
2019-05-18T07:46:41.644Z,12.45
2019-05-18T07:49:10.134Z,15.70
2019-05-18T07:51:38.585Z,13.80
2019-05-18T07:54:07.103Z,13.53
2019-05-18T07:56:35.572Z,13.03
2019-05-18T07:59:04.144Z,14.95
2019-05-18T08:01:32.689Z,16.62
2019-05-18T08:04:01.147Z,17.55
2019-05-18T08:06:29.704Z,14.18
2019-05-18T08:08:58.279Z,16.65
2019-05-18T08:11:26.816Z,17.02
2019-05-18T08:13:55.326Z,16.12
2019-05-18T08:16:23.876Z,16.73
2019-05-18T08:18:52.393Z,18.42
2019-05-18T08:21:21.039Z,14.28
2019-05-18T08:23:49.581Z,16.45
2019-05-18T08:26:18.090Z,14.60
2019-05-18T08:28:46.599Z,14.80
2019-05-18T08:31:15.212Z,13.98
2019-05-18T08:33:43.690Z,13.38
2019-05-18T08:36:36.508Z,16.35
2019-05-18T08:39:06.567Z,14.20
2019-05-18T08:41:35.089Z,13.22
2019-05-18T08:44:03.593Z,14.18
2019-05-18T08:46:32.973Z,13.05
2019-05-18T08:49:01.430Z,16.27
2019-05-18T08:51:29.937Z,15.58
2019-05-18T08:53:58.398Z,13.32
2019-05-18T08:56:26.876Z,12.60
2019-05-18T08:58:55.462Z,10.98
2019-05-18T09:01:23.905Z,11.40
2019-05-18T09:03:52.363Z,9.60
2019-05-18T09:06:20.886Z,10.90
2019-05-18T09:08:49.414Z,10.95
2019-05-18T09:11:17.894Z,10.35
2019-05-18T09:13:46.492Z,11.78
2019-05-18T09:16:14.950Z,10.32
2019-05-18T09:18:43.399Z,9.30
2019-05-18T09:21:12.203Z,10.05
2019-05-18T09:23:40.658Z,11.40
2019-05-18T09:26:09.216Z,11.30
2019-05-18T09:28:37.742Z,10.23
2019-05-18T09:31:06.318Z,9.45
2019-05-18T09:33:34.841Z,11.40
2019-05-18T09:36:03.299Z,10.95
2019-05-18T09:38:33.371Z,9.15
2019-05-18T09:41:02.157Z,10.80
2019-05-18T09:43:30.618Z,12.93
2019-05-18T09:45:59.113Z,12.60
2019-05-18T09:48:27.566Z,9.23
2019-05-18T09:50:56.159Z,9.75
2019-05-18T09:53:24.627Z,10.65
2019-05-18T09:55:53.079Z,11.95
2019-05-18T09:58:21.579Z,10.50
2019-05-18T10:00:50.045Z,13.45
2019-05-18T10:03:18.638Z,13.62
2019-05-18T10:05:47.094Z,14.03
2019-05-18T10:08:15.547Z,13.85
2019-05-18T10:10:44.039Z,12.85
2019-05-18T10:13:12.502Z,14.83
2019-05-18T10:15:41.139Z,13.62
2019-05-18T10:18:09.600Z,13.83
2019-05-18T10:20:38.060Z,12.58
2019-05-18T10:23:12.678Z,11.20
2019-05-18T10:28:05.714Z,14.47
2019-05-18T10:30:34.217Z,11.55
2019-05-18T10:33:02.713Z,11.65
2019-05-18T10:35:31.209Z,11.30
2019-05-18T10:37:59.698Z,10.40
2019-05-18T10:40:28.154Z,9.93
2019-05-18T10:42:56.655Z,11.85
2019-05-18T10:45:25.187Z,10.30
2019-05-18T10:47:53.642Z,10.88
2019-05-18T10:50:22.158Z,11.03
2019-05-18T10:52:50.610Z,11.88
2019-05-18T10:55:19.393Z,9.08
2019-05-18T10:57:47.886Z,8.53
2019-05-18T11:00:18.051Z,10.68
2019-05-18T11:05:14.958Z,8.85
2019-05-18T11:07:43.522Z,8.08
2019-05-18T11:10:12.440Z,10.08
2019-05-18T11:12:40.994Z,9.13
2019-05-18T11:15:10.382Z,12.13
2019-05-18T11:17:39.107Z,8.43
2019-05-18T11:20:09.200Z,7.47
2019-05-18T11:25:07.456Z,5.40
2019-05-18T11:30:08.140Z,8.75
2019-05-18T11:32:37.355Z,5.95
2019-05-18T11:35:07.760Z,9.53
2019-05-18T11:37:36.294Z,6.83
2019-05-18T11:40:06.763Z,4.40
2019-05-18T11:42:35.258Z,5.03
2019-05-18T11:45:05.630Z,4.62
2019-05-18T11:47:34.082Z,5.45
2019-05-18T11:50:02.637Z,5.20
2019-05-18T11:52:31.173Z,4.83
2019-05-18T11:54:59.702Z,5.58
2019-05-18T11:57:28.194Z,5.03
2019-05-18T11:59:56.691Z,5.35
2019-05-18T12:02:25.178Z,6.12
2019-05-18T12:04:53.686Z,4.37
2019-05-18T12:07:22.175Z,6.03
2019-05-18T12:09:50.618Z,5.17
2019-05-18T12:12:19.104Z,6.35
2019-05-18T12:14:47.613Z,5.03
2019-05-18T12:17:16.086Z,5.47
2019-05-18T12:19:44.649Z,5.35
2019-05-18T12:22:13.092Z,4.92
2019-05-18T12:24:41.590Z,4.42
2019-05-18T12:27:10.042Z,5.45
2019-05-18T12:29:38.577Z,4.97
2019-05-18T12:32:07.074Z,7.55
2019-05-18T12:34:35.538Z,5.00
2019-05-18T12:37:04.062Z,8.03
2019-05-18T12:39:32.546Z,4.08
2019-05-18T12:42:01.055Z,4.53
2019-05-18T12:44:29.516Z,4.65
2019-05-18T12:46:57.988Z,4.28
2019-05-18T12:49:26.731Z,5.05
2019-05-18T12:51:55.184Z,5.05
2019-05-18T12:54:30.945Z,4.65
2019-05-18T12:56:53.859Z,5.53
2019-05-18T12:59:22.306Z,4.53
2019-05-18T13:01:50.819Z,4.37
2019-05-18T13:04:19.342Z,5.35
2019-05-18T13:06:47.791Z,4.87
2019-05-18T13:09:16.286Z,4.87
2019-05-18T13:11:44.736Z,5.83
2019-05-18T13:14:13.346Z,3.87
2019-05-18T13:16:41.886Z,4.33
2019-05-18T13:19:10.343Z,7.37
2019-05-18T13:21:38.836Z,6.87
2019-05-18T13:24:07.281Z,3.83
2019-05-18T13:26:35.814Z,4.20
2019-05-18T13:29:04.486Z,4.62
2019-05-18T13:31:32.943Z,6.33
2019-05-18T13:34:01.449Z,5.05
2019-05-18T13:36:29.912Z,4.20
2019-05-18T13:38:58.429Z,5.10
2019-05-18T13:41:26.994Z,4.37
2019-05-18T13:43:55.511Z,5.60
2019-05-18T13:46:23.956Z,4.85
2019-05-18T13:48:52.462Z,4.45
2019-05-18T13:51:20.915Z,4.80
2019-05-18T13:53:49.380Z,5.17
2019-05-18T13:56:17.966Z,4.37
2019-05-18T13:58:46.414Z,4.90
2019-05-18T14:01:14.866Z,4.65
2019-05-18T14:03:43.401Z,4.12
2019-05-18T14:06:11.888Z,3.90
2019-05-18T14:08:40.346Z,6.42
2019-05-18T14:11:08.833Z,4.72
2019-05-18T14:13:37.275Z,9.28
2019-05-18T14:16:05.772Z,9.48
2019-05-18T14:18:34.315Z,5.72
2019-05-18T14:21:02.850Z,3.33
2019-05-18T14:23:31.374Z,3.55
2019-05-18T14:25:59.857Z,3.02
2019-05-18T14:28:28.325Z,4.65
2019-05-18T14:30:56.865Z,3.40
2019-05-18T14:33:25.366Z,3.37
2019-05-18T14:35:53.918Z,2.80
2019-05-18T14:38:22.375Z,2.98
2019-05-18T14:40:50.910Z,2.70
2019-05-18T14:43:19.370Z,3.20
2019-05-18T14:45:49.471Z,2.55
2019-05-18T14:48:18.056Z,3.15
2019-05-18T14:50:46.578Z,2.60
2019-05-18T14:53:15.032Z,3.62
2019-05-18T14:55:43.521Z,2.75
2019-05-18T14:58:11.971Z,3.27
2019-05-18T15:00:40.487Z,2.65
2019-05-18T15:03:09.009Z,4.22
2019-05-18T15:05:38.805Z,3.30
2019-05-18T15:08:07.550Z,4.53
2019-05-18T15:10:36.087Z,3.52
2019-05-18T15:13:04.654Z,2.85
2019-05-18T15:15:33.117Z,2.75
2019-05-18T15:18:01.720Z,2.60
2019-05-18T15:20:30.395Z,4.58
2019-05-18T15:22:58.837Z,3.25
2019-05-18T15:25:27.331Z,2.42
2019-05-18T15:27:55.823Z,2.30
2019-05-18T15:30:24.711Z,2.30
2019-05-18T15:32:53.194Z,2.47
2019-05-18T15:35:21.689Z,2.80
2019-05-18T15:37:50.143Z,3.05
2019-05-18T15:40:19.004Z,2.52
2019-05-18T15:42:47.453Z,3.13
2019-05-18T15:45:17.711Z,3.92
2019-05-18T15:47:46.208Z,3.35
2019-05-18T15:50:15.222Z,5.65
2019-05-18T15:52:43.738Z,4.70
2019-05-18T15:55:12.529Z,4.72
2019-05-18T15:57:40.993Z,2.92
2019-05-18T16:00:10.579Z,4.40
2019-05-18T16:02:39.032Z,3.12
2019-05-18T16:05:08.935Z,3.25
2019-05-18T16:07:37.551Z,3.05
2019-05-18T16:10:06.747Z,3.37
2019-05-18T16:12:35.280Z,3.85
2019-05-18T16:15:07.439Z,3.58
2019-05-18T16:17:39.412Z,4.00
2019-05-18T16:20:06.983Z,3.52
2019-05-18T16:22:35.501Z,4.78
2019-05-18T16:25:05.990Z,3.95
2019-05-18T16:27:34.477Z,6.08
2019-05-18T16:30:06.628Z,7.83
2019-05-18T16:32:35.087Z,3.65
2019-05-18T16:35:04.908Z,2.08
2019-05-18T16:37:33.385Z,4.90
2019-05-18T16:40:01.848Z,2.67
2019-05-18T16:42:30.458Z,3.22
2019-05-18T16:44:58.915Z,2.92
2019-05-18T16:47:27.441Z,4.20
2019-05-18T16:49:55.929Z,4.10
2019-05-18T16:52:24.442Z,5.17
2019-05-18T16:54:52.896Z,4.92
2019-05-18T16:57:21.358Z,9.15
2019-05-18T16:59:49.876Z,3.85
2019-05-18T17:02:31.169Z,3.02
2019-05-18T17:04:48.604Z,3.90
2019-05-18T17:07:17.093Z,3.08
2019-05-18T17:09:45.538Z,2.02
2019-05-18T17:12:14.181Z,4.33
2019-05-18T17:14:42.623Z,2.85
2019-05-18T17:17:11.074Z,2.87
2019-05-18T17:19:39.648Z,4.40
2019-05-18T17:22:08.412Z,5.53
2019-05-18T17:24:36.865Z,8.95
2019-05-18T17:27:05.442Z,4.60
2019-05-18T17:29:33.891Z,4.65
2019-05-18T17:32:02.347Z,5.37
2019-05-18T17:34:30.938Z,6.25
2019-05-18T17:36:59.446Z,3.25
2019-05-18T17:39:28.031Z,5.17
2019-05-18T17:41:56.491Z,5.08
2019-05-18T17:44:24.946Z,3.75
2019-05-18T17:46:53.438Z,3.08
2019-05-18T17:49:26.908Z,8.40
2019-05-18T17:51:52.182Z,3.72
2019-05-18T17:54:20.715Z,3.65
2019-05-18T17:56:49.308Z,3.98
2019-05-18T17:59:17.825Z,3.92
2019-05-18T18:01:46.263Z,4.85
2019-05-18T18:04:14.799Z,6.30
2019-05-18T18:06:43.246Z,5.75
2019-05-18T18:09:11.695Z,6.80
2019-05-18T18:11:40.330Z,7.55
2019-05-18T18:14:08.855Z,7.55
2019-05-18T18:16:37.381Z,5.37
2019-05-18T18:19:05.915Z,4.75
2019-05-18T18:21:34.369Z,7.97
2019-05-18T18:24:03.106Z,3.90
2019-05-18T18:26:31.600Z,4.53
2019-05-18T18:29:00.153Z,5.58
2019-05-18T18:31:28.603Z,13.75
2019-05-18T18:33:57.091Z,15.58
2019-05-18T18:36:25.618Z,23.07
2019-05-18T18:38:54.074Z,13.62
2019-05-18T18:41:22.524Z,8.93
2019-05-18T18:43:51.017Z,6.35
2019-05-18T18:46:19.535Z,8.70
2019-05-18T18:48:48.081Z,10.00
2019-05-18T18:51:16.621Z,6.10
2019-05-18T18:53:45.159Z,5.97
2019-05-18T18:56:13.682Z,6.83
2019-05-18T18:58:42.170Z,8.38
2019-05-18T19:01:10.734Z,7.42
2019-05-18T19:03:39.212Z,8.98
2019-05-18T19:06:07.963Z,10.55
2019-05-18T19:08:36.419Z,15.30
2019-05-18T19:11:04.944Z,15.83
2019-05-18T19:13:33.442Z,17.32
2019-05-18T19:16:01.935Z,18.57
2019-05-18T19:18:30.523Z,22.37
2019-05-18T19:20:58.982Z,18.23
2019-05-18T19:23:27.580Z,16.90
2019-05-18T19:25:56.110Z,13.75
2019-05-18T19:28:24.559Z,14.50
2019-05-18T19:30:53.076Z,13.80
2019-05-18T19:33:21.562Z,12.07
2019-05-18T19:35:50.021Z,12.98
2019-05-18T19:38:18.630Z,9.90
2019-05-18T19:40:47.074Z,8.80
2019-05-18T19:43:15.590Z,8.60
2019-05-18T19:46:03.423Z,9.73
2019-05-18T19:48:31.875Z,7.92
2019-05-18T19:51:00.366Z,14.07
2019-05-18T19:53:28.862Z,11.08
2019-05-18T19:55:57.383Z,14.40
2019-05-18T19:58:25.916Z,14.45
2019-05-18T20:00:54.370Z,11.88
2019-05-18T20:03:22.942Z,15.00
2019-05-18T20:05:51.448Z,14.23
2019-05-18T20:08:19.913Z,14.35
2019-05-18T20:10:48.450Z,15.20
2019-05-18T20:13:17.107Z,18.30
2019-05-18T20:15:45.565Z,20.55
2019-05-18T20:18:14.031Z,19.70
2019-05-18T20:20:42.521Z,21.80
2019-05-18T20:23:10.983Z,23.80
2019-05-18T20:25:39.575Z,23.02
2019-05-18T20:28:08.036Z,22.15
2019-05-18T20:30:36.498Z,22.45
2019-05-18T20:33:05.084Z,18.85
2019-05-18T20:35:33.614Z,21.80
2019-05-18T20:38:03.339Z,20.35
2019-05-18T20:40:31.766Z,16.48
2019-05-18T20:43:00.378Z,18.75
2019-05-18T20:45:28.828Z,15.93
2019-05-18T20:47:57.296Z,18.37
2019-05-18T20:50:25.891Z,17.35
2019-05-18T20:52:54.347Z,17.75
2019-05-18T20:55:22.875Z,19.42
2019-05-18T20:57:51.410Z,20.00
2019-05-18T21:00:19.955Z,18.62
2019-05-18T21:02:49.392Z,18.60
2019-05-18T21:05:18.165Z,17.60
2019-05-18T21:07:46.776Z,19.02
2019-05-18T21:10:15.402Z,16.30
2019-05-18T21:12:43.865Z,18.90
2019-05-18T21:15:13.024Z,17.65
2019-05-18T21:17:41.985Z,19.40
2019-05-18T21:20:31.443Z,17.73
2019-05-18T21:22:59.908Z,21.48
2019-05-18T21:25:28.457Z,20.17
2019-05-18T21:27:57.047Z,22.00
2019-05-18T21:30:25.576Z,21.17
2019-05-18T21:32:54.032Z,22.67
2019-05-18T21:35:22.627Z,22.17
2019-05-18T21:37:51.086Z,17.92
2019-05-18T21:40:19.633Z,22.50
2019-05-18T21:42:48.198Z,28.17
2019-05-18T21:45:17.080Z,21.33
2019-05-18T21:47:45.642Z,24.63
2019-05-18T21:50:15.025Z,21.65
2019-05-18T21:52:43.604Z,21.17
2019-05-18T21:55:12.716Z,21.80
2019-05-18T21:57:42.776Z,23.05
2019-05-18T22:02:47.259Z,23.02
2019-05-18T22:05:15.714Z,23.38
2019-05-18T22:07:44.210Z,22.15
2019-05-18T22:10:24.741Z,22.98
2019-05-18T22:12:43.225Z,25.12
2019-05-18T22:15:12.129Z,23.18
2019-05-18T22:17:58.612Z,27.20
2019-05-18T22:20:27.071Z,23.22
2019-05-18T22:22:55.596Z,22.87
2019-05-18T22:25:24.137Z,23.83
2019-05-18T22:27:52.675Z,25.60
2019-05-18T22:30:21.122Z,21.15
2019-05-18T22:32:49.609Z,26.23
2019-05-18T22:35:18.068Z,23.60
2019-05-18T22:37:47.731Z,22.07
2019-05-18T22:40:16.297Z,26.80
2019-05-18T22:42:44.790Z,24.77
2019-05-18T22:45:13.518Z,21.60
2019-05-18T22:47:41.982Z,24.80
2019-05-18T22:50:12.359Z,23.00
2019-05-18T22:52:40.877Z,20.90
2019-05-18T22:55:09.672Z,19.40
2019-05-18T22:57:38.185Z,19.40
2019-05-18T23:00:10.583Z,19.45
2019-05-18T23:02:39.039Z,22.75
2019-05-18T23:05:07.673Z,20.50
2019-05-18T23:07:36.127Z,19.05
2019-05-18T23:10:06.022Z,20.25
2019-05-18T23:12:34.535Z,19.82
2019-05-18T23:15:03.265Z,21.15
2019-05-18T23:17:31.710Z,20.32
2019-05-18T23:20:00.452Z,19.15
2019-05-18T23:22:28.913Z,21.27
2019-05-18T23:24:57.367Z,19.02
2019-05-18T23:27:25.888Z,19.52
2019-05-18T23:29:54.418Z,22.48
2019-05-18T23:32:22.879Z,20.15
2019-05-18T23:34:51.423Z,19.27
2019-05-18T23:37:19.945Z,24.77
2019-05-18T23:39:48.404Z,22.00
2019-05-18T23:42:16.916Z,21.02
2019-05-18T23:44:45.441Z,21.23
2019-05-18T23:47:13.899Z,21.87
2019-05-18T23:49:42.402Z,25.40
2019-05-18T23:52:10.916Z,26.45
2019-05-18T23:54:39.421Z,21.55
2019-05-18T23:57:07.945Z,26.82
2019-05-18T23:59:36.433Z,22.25
